createdAt,value
2022-11-01T00:02:02.772Z,11.65
2022-11-01T00:04:31.138Z,11.98
2022-11-01T00:06:59.465Z,12.38
2022-11-01T00:09:27.798Z,11.32
2022-11-01T00:11:56.218Z,11.05
2022-11-01T00:14:24.486Z,11.23
2022-11-01T00:16:53.101Z,11.57
2022-11-01T00:19:22.804Z,10.75
2022-11-01T00:21:51.117Z,10.90
2022-11-01T00:24:19.398Z,11.73
2022-11-01T00:29:20.952Z,11.77
2022-11-01T00:31:49.434Z,11.35
2022-11-01T00:34:18.075Z,11.55
2022-11-01T00:36:47.800Z,10.32
2022-11-01T00:39:16.881Z,10.90
2022-11-01T00:41:45.198Z,10.98
2022-11-01T00:44:13.700Z,10.85
2022-11-01T00:46:42.059Z,10.60
2022-11-01T00:49:10.335Z,11.07
2022-11-01T00:51:38.586Z,10.52
2022-11-01T00:54:08.552Z,10.38
2022-11-01T00:56:36.879Z,10.32
2022-11-01T00:59:05.752Z,11.13
2022-11-01T01:01:35.949Z,10.70
2022-11-01T01:04:04.621Z,10.70
2022-11-01T01:06:32.979Z,10.32
2022-11-01T01:09:02.352Z,10.70
2022-11-01T01:11:31.983Z,9.57
2022-11-01T01:14:01.709Z,9.90
2022-11-01T01:16:30.192Z,9.77
2022-11-01T01:18:59.965Z,10.40
2022-11-01T01:21:28.253Z,9.85
2022-11-01T01:23:56.631Z,9.98
2022-11-01T01:26:24.936Z,9.80
2022-11-01T01:28:56.407Z,9.13
2022-11-01T01:31:24.738Z,9.40
2022-11-01T01:33:53.080Z,9.90
2022-11-01T01:36:21.413Z,9.18
2022-11-01T01:38:52.866Z,8.77
2022-11-01T01:41:53.239Z,9.27
2022-11-01T01:45:16.745Z,9.20
2022-11-01T01:47:53.176Z,9.35
2022-11-01T01:50:28.403Z,9.20
2022-11-01T01:53:03.542Z,8.45
2022-11-01T01:55:38.354Z,9.63
2022-11-01T01:58:08.533Z,8.80
2022-11-01T02:00:36.930Z,8.93
2022-11-01T02:03:08.451Z,7.97
2022-11-01T02:05:45.967Z,8.98
2022-11-01T02:08:15.904Z,8.48
2022-11-01T02:10:44.671Z,7.90
2022-11-01T02:13:15.019Z,7.32
2022-11-01T02:15:59.393Z,6.65
2022-11-01T02:18:37.257Z,6.25
2022-11-01T02:21:40.597Z,5.25
2022-11-01T02:24:52.137Z,5.05
2022-11-01T02:27:28.493Z,5.15
2022-11-01T02:30:13.384Z,4.35
2022-11-01T02:33:06.171Z,4.50
2022-11-01T02:35:50.672Z,3.92
2022-11-01T02:38:27.845Z,4.20
2022-11-01T02:41:04.897Z,4.40
2022-11-01T02:43:43.618Z,3.97
2022-11-01T02:46:30.392Z,4.00
2022-11-01T02:49:00.421Z,4.05
2022-11-01T02:51:31.294Z,4.00
2022-11-01T02:54:02.921Z,3.85
2022-11-01T02:56:32.324Z,3.70
2022-11-01T02:59:01.631Z,3.55
2022-11-01T03:01:34.403Z,3.47
2022-11-01T03:04:04.800Z,3.70
2022-11-01T03:06:38.960Z,3.63
2022-11-01T03:09:11.523Z,3.60
2022-11-01T03:11:52.274Z,3.47
2022-11-01T03:17:01.216Z,3.40
2022-11-01T03:19:45.599Z,4.10
2022-11-01T03:22:18.460Z,4.20
2022-11-01T03:24:51.561Z,4.35
2022-11-01T03:27:27.537Z,4.80
2022-11-01T03:30:02.939Z,3.65
2022-11-01T03:32:37.788Z,4.35
2022-11-01T03:35:12.222Z,4.22
2022-11-01T03:37:43.245Z,4.40
2022-11-01T03:40:15.314Z,3.97
2022-11-01T03:42:49.728Z,4.40
2022-11-01T03:47:57.497Z,4.35
2022-11-01T03:50:29.741Z,4.05
2022-11-01T03:52:58.477Z,4.43
2022-11-01T03:55:27.353Z,4.90
2022-11-01T03:57:57.982Z,4.88
2022-11-01T04:00:29.345Z,4.32
2022-11-01T04:02:59.500Z,4.10
2022-11-01T04:05:31.386Z,4.57
2022-11-01T04:07:59.814Z,4.00
2022-11-01T04:10:30.125Z,4.82
2022-11-01T04:12:59.283Z,4.57
2022-11-01T04:15:46.591Z,4.97
2022-11-01T04:18:35.114Z,4.78
2022-11-01T04:21:07.840Z,4.55
2022-11-01T04:23:36.883Z,4.72
2022-11-01T04:26:07.436Z,4.40
2022-11-01T04:28:35.898Z,5.20
2022-11-01T04:31:04.348Z,4.95
2022-11-01T04:33:32.734Z,5.85
2022-11-01T04:36:08.039Z,5.05
2022-11-01T04:38:36.353Z,5.47
2022-11-01T04:41:04.625Z,5.13
2022-11-01T04:43:32.911Z,5.43
2022-11-01T04:46:01.185Z,6.45
2022-11-01T04:48:29.891Z,5.40
2022-11-01T04:50:58.178Z,5.18
2022-11-01T04:53:27.912Z,4.65
2022-11-01T04:55:56.388Z,4.87
2022-11-01T04:58:24.886Z,5.57
2022-11-01T05:00:53.162Z,4.75
2022-11-01T05:03:21.541Z,4.20
2022-11-01T05:05:49.838Z,4.25
2022-11-01T05:08:18.112Z,4.72
2022-11-01T05:10:47.663Z,4.97
2022-11-01T05:13:15.957Z,5.30
2022-11-01T05:16:06.246Z,5.03
2022-11-01T05:18:32.621Z,4.72
2022-11-01T05:21:00.915Z,4.72
2022-11-01T05:23:29.220Z,5.72
2022-11-01T05:25:59.738Z,4.38
2022-11-01T05:28:28.088Z,4.88
2022-11-01T05:30:56.357Z,4.78
2022-11-01T05:33:24.704Z,5.15
2022-11-01T05:35:53.073Z,5.15
2022-11-01T05:38:24.292Z,5.55
2022-11-01T05:40:52.573Z,6.72
2022-11-01T05:43:22.202Z,5.57
2022-11-01T05:45:51.299Z,5.72
2022-11-01T05:48:19.732Z,5.47
2022-11-01T05:50:48.544Z,5.90
2022-11-01T05:53:16.978Z,6.65
2022-11-01T05:55:45.354Z,5.50
2022-11-01T05:58:13.763Z,6.50
2022-11-01T06:00:43.522Z,5.70
2022-11-01T06:03:11.884Z,6.07
2022-11-01T06:05:40.598Z,5.93
2022-11-01T06:08:09.046Z,6.03
2022-11-01T06:10:37.258Z,6.57
2022-11-01T06:13:05.939Z,6.57
2022-11-01T06:15:37.227Z,5.93
2022-11-01T06:18:09.775Z,5.57
2022-11-01T06:20:38.754Z,6.20
2022-11-01T06:23:11.953Z,5.50
2022-11-01T06:25:40.368Z,6.00
2022-11-01T06:28:08.705Z,6.05
2022-11-01T06:30:38.930Z,6.53
2022-11-01T06:33:09.590Z,6.45
2022-11-01T06:38:08.531Z,6.18
2022-11-01T06:40:37.385Z,6.25
2022-11-01T06:43:07.365Z,6.22
2022-11-01T06:45:35.757Z,6.70
2022-11-01T06:48:04.314Z,7.35
2022-11-01T06:50:34.777Z,6.43
2022-11-01T06:53:05.975Z,6.10
2022-11-01T06:55:34.299Z,6.75
2022-11-01T06:58:04.515Z,7.05
2022-11-01T07:00:33.764Z,5.68
2022-11-01T07:03:05.561Z,6.88
2022-11-01T07:05:38.530Z,5.38
2022-11-01T07:08:09.056Z,5.57
2022-11-01T07:10:38.639Z,5.85
2022-11-01T07:13:08.874Z,6.15
2022-11-01T07:15:37.429Z,6.65
2022-11-01T07:18:08.735Z,6.32
2022-11-01T07:20:42.469Z,6.20
2022-11-01T07:23:16.031Z,5.63
2022-11-01T07:25:45.004Z,5.82
2022-11-01T07:28:13.753Z,6.07
2022-11-01T07:30:42.165Z,6.22
2022-11-01T07:33:10.718Z,6.88
2022-11-01T07:35:40.453Z,5.38
2022-11-01T07:38:13.229Z,5.40
2022-11-01T07:40:42.749Z,6.10
2022-11-01T07:43:11.302Z,6.55
2022-11-01T07:45:39.674Z,6.57
2022-11-01T07:48:12.035Z,5.93
2022-11-01T07:50:46.017Z,6.38
2022-11-01T07:53:16.757Z,5.55
2022-11-01T07:58:16.095Z,6.85
2022-11-01T08:00:45.868Z,6.80
2022-11-01T08:03:16.624Z,5.67
2022-11-01T08:08:16.676Z,5.70
2022-11-01T08:10:45.239Z,5.75
2022-11-01T08:13:18.354Z,5.72
2022-11-01T08:15:47.230Z,6.40
2022-11-01T08:18:16.210Z,6.00
2022-11-01T08:20:45.958Z,5.72
2022-11-01T08:23:14.438Z,5.70
2022-11-01T08:25:44.748Z,5.38
2022-11-01T08:28:15.905Z,5.30
2022-11-01T08:30:46.561Z,5.75
2022-11-01T08:35:50.400Z,5.70
2022-11-01T08:38:19.451Z,5.32
2022-11-01T08:40:48.015Z,6.18
2022-11-01T08:43:16.529Z,6.07
2022-11-01T08:45:45.098Z,5.85
2022-11-01T08:48:13.823Z,6.28
2022-11-01T08:50:42.277Z,6.00
2022-11-01T08:53:14.293Z,5.45
2022-11-01T08:55:43.287Z,6.00
2022-11-01T08:58:12.141Z,5.88
2022-11-01T09:00:40.499Z,6.20
2022-11-01T09:03:08.826Z,5.68
2022-11-01T09:05:37.349Z,5.63
2022-11-01T09:08:06.375Z,5.90
2022-11-01T09:10:36.375Z,5.50
2022-11-01T09:13:07.022Z,5.90
2022-11-01T09:15:35.689Z,5.68
2022-11-01T09:18:07.537Z,5.47
2022-11-01T09:20:37.898Z,5.82
2022-11-01T09:23:06.459Z,5.85
2022-11-01T09:25:36.973Z,5.68
2022-11-01T09:28:05.610Z,5.82
2022-11-01T09:30:33.887Z,5.50
2022-11-01T09:33:06.021Z,7.30
2022-11-01T09:35:34.882Z,6.28
2022-11-01T09:38:04.519Z,5.40
2022-11-01T09:40:45.455Z,5.72
2022-11-01T09:43:21.966Z,6.00
2022-11-01T09:45:52.710Z,6.88
2022-11-01T09:50:49.504Z,5.85
2022-11-01T09:53:23.396Z,6.50
2022-11-01T09:56:02.025Z,6.18
2022-11-01T09:58:43.213Z,5.65
2022-11-01T10:01:34.918Z,5.40
2022-11-01T10:04:23.628Z,6.25
2022-11-01T10:07:00.445Z,5.25
2022-11-01T10:09:39.562Z,5.97
2022-11-01T10:12:26.145Z,5.85
2022-11-01T10:15:10.703Z,5.50
2022-11-01T10:17:52.335Z,6.20
2022-11-01T10:20:24.632Z,5.88
2022-11-01T10:22:52.987Z,6.03
2022-11-01T10:25:26.555Z,5.53
2022-11-01T10:28:06.921Z,5.88
2022-11-01T10:30:41.783Z,5.85
2022-11-01T10:33:29.114Z,5.93
2022-11-01T10:36:02.446Z,5.95
2022-11-01T10:39:04.578Z,5.25
2022-11-01T10:41:37.493Z,5.25
2022-11-01T10:44:15.289Z,5.07
2022-11-01T10:46:47.191Z,5.40
2022-11-01T10:49:24.570Z,5.85
2022-11-01T10:51:57.798Z,5.40
2022-11-01T10:54:30.171Z,5.82
2022-11-01T10:57:02.726Z,5.03
2022-11-01T10:59:40.081Z,4.97
2022-11-01T11:02:17.826Z,5.93
2022-11-01T11:04:46.553Z,5.65
2022-11-01T11:07:18.600Z,4.82
2022-11-01T11:09:51.253Z,5.70
2022-11-01T11:12:22.856Z,5.20
2022-11-01T11:14:57.903Z,5.70
2022-11-01T11:17:31.183Z,5.15
2022-11-01T11:20:04.903Z,5.07
2022-11-01T11:22:39.732Z,5.07
2022-11-01T11:25:15.579Z,5.03
2022-11-01T11:27:48.526Z,5.60
2022-11-01T11:30:29.857Z,4.95
2022-11-01T11:33:02.740Z,4.90
2022-11-01T11:35:33.678Z,5.38
2022-11-01T11:38:05.028Z,4.70
2022-11-01T11:40:45.626Z,5.47
2022-11-01T11:43:23.958Z,5.43
2022-11-01T11:46:08.855Z,4.43
2022-11-01T11:48:48.444Z,5.40
2022-11-01T11:51:17.781Z,5.10
2022-11-01T11:54:10.451Z,4.97
2022-11-01T11:56:38.955Z,5.25
2022-11-01T11:59:16.905Z,5.03
2022-11-01T12:01:48.532Z,4.28
2022-11-01T12:04:19.073Z,4.95
2022-11-01T12:06:49.901Z,4.80
2022-11-01T12:09:42.670Z,4.75
2022-11-01T12:12:20.059Z,4.65
2022-11-01T12:14:48.514Z,5.10
2022-11-01T12:17:41.399Z,4.50
2022-11-01T12:20:18.237Z,4.68
2022-11-01T12:22:51.760Z,4.78
2022-11-01T12:25:24.419Z,4.63
2022-11-01T12:28:01.248Z,5.00
2022-11-01T12:30:34.627Z,5.03
2022-11-01T12:35:47.485Z,4.78
2022-11-01T12:38:40.911Z,5.35
2022-11-01T12:41:25.707Z,5.20
2022-11-01T12:44:05.249Z,4.85
2022-11-01T12:46:40.635Z,5.55
2022-11-01T12:49:20.320Z,5.03
2022-11-01T12:51:54.548Z,4.35
2022-11-01T12:54:29.244Z,4.72
2022-11-01T12:56:58.423Z,5.20
2022-11-01T12:59:37.123Z,4.35
2022-11-01T13:02:27.831Z,4.82
2022-11-01T13:05:04.250Z,5.78
2022-11-01T13:07:47.824Z,4.65
2022-11-01T13:10:27.511Z,4.80
2022-11-01T13:13:05.708Z,4.90
2022-11-01T13:15:47.274Z,5.25
2022-11-01T13:18:22.924Z,4.90
2022-11-01T13:21:00.899Z,4.95
2022-11-01T13:23:37.122Z,4.05
2022-11-01T13:26:14.173Z,4.45
2022-11-01T13:28:58.427Z,6.05
2022-11-01T13:31:51.393Z,5.28
2022-11-01T13:34:34.168Z,4.43
2022-11-01T13:37:12.063Z,5.13
2022-11-01T13:39:55.296Z,4.38
2022-11-01T13:42:32.624Z,4.90
2022-11-01T13:45:23.734Z,5.00
2022-11-01T13:47:58.039Z,4.75
2022-11-01T13:50:56.501Z,5.40
2022-11-01T13:53:35.972Z,5.10
2022-11-01T13:56:09.644Z,4.45
2022-11-01T13:58:38.555Z,4.75
2022-11-01T14:01:32.108Z,4.55
2022-11-01T14:04:55.907Z,4.57
2022-11-01T14:07:24.428Z,5.00
2022-11-01T14:09:55.288Z,4.38
2022-11-01T14:12:43.327Z,5.40
2022-11-01T14:15:25.026Z,4.57
2022-11-01T14:18:04.523Z,4.80
2022-11-01T14:20:53.430Z,4.75
2022-11-01T14:24:02.536Z,5.28
2022-11-01T14:27:10.377Z,5.28
2022-11-01T14:29:38.860Z,4.60
2022-11-01T14:32:09.324Z,4.45
2022-11-01T14:34:41.641Z,4.80
2022-11-01T14:37:40.873Z,4.47
2022-11-01T14:40:30.560Z,4.55
2022-11-01T14:43:06.272Z,5.03
2022-11-01T14:45:38.437Z,4.90
2022-11-01T14:48:17.005Z,4.85
2022-11-01T14:50:56.978Z,4.95
2022-11-01T14:53:30.301Z,4.45
2022-11-01T14:56:15.465Z,4.78
2022-11-01T14:58:45.700Z,4.15
2022-11-01T15:01:17.375Z,4.32
2022-11-01T15:03:58.109Z,4.15
2022-11-01T15:06:29.007Z,4.60
2022-11-01T15:08:59.441Z,4.55
2022-11-01T15:11:29.438Z,4.03
2022-11-01T15:14:04.756Z,4.85
2022-11-01T15:16:36.654Z,4.28
2022-11-01T15:19:10.880Z,5.10
2022-11-01T15:21:46.943Z,4.78
2022-11-01T15:24:25.767Z,5.32
2022-11-01T15:26:54.864Z,4.85
2022-11-01T15:29:25.990Z,5.30
2022-11-01T15:32:00.636Z,5.65
2022-11-01T15:34:32.121Z,5.15
2022-11-01T15:37:11.609Z,5.20
2022-11-01T15:39:42.752Z,4.88
2022-11-01T15:42:20.288Z,4.38
2022-11-01T15:44:50.082Z,5.45
2022-11-01T15:47:22.639Z,5.20
2022-11-01T15:49:56.580Z,5.35
2022-11-01T15:52:30.293Z,5.53
2022-11-01T15:55:05.849Z,4.80
2022-11-01T15:57:39.429Z,4.78
2022-11-01T16:00:18.665Z,5.30
2022-11-01T16:02:52.628Z,4.47
2022-11-01T16:05:29.952Z,5.22
2022-11-01T16:07:59.007Z,5.22
2022-11-01T16:10:30.069Z,4.53
2022-11-01T16:13:00.463Z,4.78
2022-11-01T16:15:33.048Z,5.18
2022-11-01T16:18:03.443Z,4.75
2022-11-01T16:23:07.158Z,5.97
2022-11-01T16:25:38.143Z,5.60
2022-11-01T16:28:33.010Z,5.60
2022-11-01T16:31:04.252Z,5.20
2022-11-01T16:33:45.329Z,5.57
2022-11-01T16:36:38.093Z,5.10
2022-11-01T16:39:29.379Z,4.68
2022-11-01T16:41:59.086Z,5.63
2022-11-01T16:44:27.896Z,5.53
2022-11-01T16:46:57.717Z,4.93
2022-11-01T16:49:29.075Z,5.95
2022-11-01T16:51:57.518Z,5.18
2022-11-01T16:54:26.261Z,5.18
2022-11-01T16:56:58.390Z,5.18
2022-11-01T16:59:39.007Z,4.95
2022-11-01T17:02:19.257Z,5.47
2022-11-01T17:04:51.620Z,5.45
2022-11-01T17:07:20.291Z,5.13
2022-11-01T17:09:48.678Z,5.07
2022-11-01T17:12:17.223Z,5.38
2022-11-01T17:14:46.494Z,5.30
2022-11-01T17:17:19.681Z,5.72
2022-11-01T17:19:54.540Z,5.82
2022-11-01T17:22:37.639Z,5.22
2022-11-01T17:25:08.053Z,5.05
2022-11-01T17:27:36.491Z,5.53
2022-11-01T17:30:05.738Z,5.32
2022-11-01T17:32:35.585Z,4.60
2022-11-01T17:35:04.042Z,4.75
2022-11-01T17:37:36.715Z,4.93
2022-11-01T17:40:15.876Z,4.35
2022-11-01T17:42:44.385Z,5.53
2022-11-01T17:45:13.425Z,5.13
2022-11-01T17:47:43.140Z,5.18
2022-11-01T17:50:15.246Z,4.80
2022-11-01T17:52:44.405Z,5.38
2022-11-01T17:55:13.810Z,5.15
2022-11-01T17:57:43.524Z,5.28
2022-11-01T18:00:13.316Z,4.70
2022-11-01T18:02:44.969Z,5.07
2022-11-01T18:05:14.297Z,4.55
2022-11-01T18:07:49.559Z,4.45
2022-11-01T18:10:20.673Z,5.07
2022-11-01T18:13:10.449Z,4.78
2022-11-01T18:15:45.363Z,4.70
2022-11-01T18:18:30.375Z,4.05
2022-11-01T18:21:13.476Z,4.22
2022-11-01T18:23:46.256Z,3.80
2022-11-01T18:26:21.479Z,4.30
2022-11-01T18:28:50.139Z,4.00
2022-11-01T18:31:25.181Z,4.32
2022-11-01T18:34:01.642Z,3.80
2022-11-01T18:36:35.168Z,3.85
2022-11-01T18:39:16.346Z,4.32
2022-11-01T18:41:47.123Z,4.30
2022-11-01T18:44:15.891Z,4.22
2022-11-01T18:46:53.323Z,4.50
2022-11-01T18:49:27.990Z,4.13
2022-11-01T18:51:57.148Z,3.88
2022-11-01T18:54:28.370Z,4.13
2022-11-01T18:56:59.122Z,4.43
